sensor_id;sensor_type;location;lat;lon;timestamp;P1;durP1;ratioP1;P2;durP2;ratioP2
19111;SDS011;9688;51.906;8.376;2023-07-24T00:02:40;3.03;;;2.63;;
19111;SDS011;9688;51.906;8.376;2023-07-24T00:05:26;3.83;;;2.77;;
19111;SDS011;9688;51.906;8.376;2023-07-24T00:08:11;2.70;;;2.50;;
19111;SDS011;9688;51.906;8.376;2023-07-24T00:10:57;2.90;;;2.70;;
19111;SDS011;9688;51.906;8.376;2023-07-24T00:13:45;4.83;;;3.00;;
19111;SDS011;9688;51.906;8.376;2023-07-24T00:16:31;3.10;;;2.90;;
19111;SDS011;9688;51.906;8.376;2023-07-24T00:19:16;3.33;;;2.50;;
19111;SDS011;9688;51.906;8.376;2023-07-24T00:22:02;3.07;;;2.87;;
19111;SDS011;9688;51.906;8.376;2023-07-24T00:24:48;3.20;;;2.70;;
19111;SDS011;9688;51.906;8.376;2023-07-24T00:27:34;3.03;;;2.73;;
19111;SDS011;9688;51.906;8.376;2023-07-24T00:30:21;3.03;;;2.83;;
19111;SDS011;9688;51.906;8.376;2023-07-24T00:33:07;5.77;;;2.83;;
19111;SDS011;9688;51.906;8.376;2023-07-24T00:35:54;3.40;;;3.10;;
19111;SDS011;9688;51.906;8.376;2023-07-24T00:38:41;3.93;;;2.50;;
19111;SDS011;9688;51.906;8.376;2023-07-24T00:41:27;3.03;;;2.80;;
19111;SDS011;9688;51.906;8.376;2023-07-24T00:44:13;2.90;;;2.70;;
19111;SDS011;9688;51.906;8.376;2023-07-24T00:47:00;4.50;;;3.23;;
19111;SDS011;9688;51.906;8.376;2023-07-24T00:49:46;3.20;;;3.00;;
19111;SDS011;9688;51.906;8.376;2023-07-24T00:52:32;2.87;;;2.67;;
19111;SDS011;9688;51.906;8.376;2023-07-24T00:55:18;3.17;;;2.90;;
19111;SDS011;9688;51.906;8.376;2023-07-24T00:58:04;3.73;;;3.00;;
19111;SDS011;9688;51.906;8.376;2023-07-24T01:00:50;3.40;;;3.10;;
19111;SDS011;9688;51.906;8.376;2023-07-24T01:03:38;3.37;;;2.97;;
19111;SDS011;9688;51.906;8.376;2023-07-24T01:06:24;3.13;;;2.93;;
19111;SDS011;9688;51.906;8.376;2023-07-24T01:09:10;6.27;;;3.37;;
19111;SDS011;9688;51.906;8.376;2023-07-24T01:11:56;3.93;;;3.07;;
19111;SDS011;9688;51.906;8.376;2023-07-24T01:14:48;2.87;;;2.70;;
19111;SDS011;9688;51.906;8.376;2023-07-24T01:17:39;5.43;;;2.80;;
19111;SDS011;9688;51.906;8.376;2023-07-24T01:20:32;3.10;;;2.90;;
19111;SDS011;9688;51.906;8.376;2023-07-24T01:23:23;3.30;;;3.03;;
19111;SDS011;9688;51.906;8.376;2023-07-24T01:26:20;6.27;;;3.07;;
19111;SDS011;9688;51.906;8.376;2023-07-24T01:29:07;3.10;;;2.80;;
19111;SDS011;9688;51.906;8.376;2023-07-24T01:31:53;3.60;;;2.63;;
19111;SDS011;9688;51.906;8.376;2023-07-24T01:34:39;3.60;;;3.07;;
19111;SDS011;9688;51.906;8.376;2023-07-24T01:37:25;3.73;;;2.87;;
19111;SDS011;9688;51.906;8.376;2023-07-24T01:40:12;3.37;;;2.93;;
19111;SDS011;9688;51.906;8.376;2023-07-24T01:43:00;4.53;;;2.97;;
19111;SDS011;9688;51.906;8.376;2023-07-24T01:45:45;3.57;;;3.27;;
19111;SDS011;9688;51.906;8.376;2023-07-24T01:48:31;5.97;;;3.00;;
19111;SDS011;9688;51.906;8.376;2023-07-24T01:51:17;3.63;;;2.93;;
19111;SDS011;9688;51.906;8.376;2023-07-24T01:54:06;4.63;;;2.90;;
19111;SDS011;9688;51.906;8.376;2023-07-24T01:56:54;3.70;;;2.73;;
19111;SDS011;9688;51.906;8.376;2023-07-24T01:59:41;4.93;;;3.23;;
19111;SDS011;9688;51.906;8.376;2023-07-24T02:02:28;3.33;;;3.03;;
19111;SDS011;9688;51.906;8.376;2023-07-24T02:05:14;3.33;;;3.03;;
19111;SDS011;9688;51.906;8.376;2023-07-24T02:08:00;5.60;;;3.40;;
19111;SDS011;9688;51.906;8.376;2023-07-24T02:10:48;4.03;;;2.93;;
19111;SDS011;9688;51.906;8.376;2023-07-24T02:13:34;4.23;;;3.23;;
19111;SDS011;9688;51.906;8.376;2023-07-24T02:16:21;4.80;;;3.40;;
19111;SDS011;9688;51.906;8.376;2023-07-24T02:19:06;4.43;;;3.53;;
19111;SDS011;9688;51.906;8.376;2023-07-24T02:21:52;3.57;;;3.27;;
19111;SDS011;9688;51.906;8.376;2023-07-24T02:24:37;7.17;;;3.30;;
19111;SDS011;9688;51.906;8.376;2023-07-24T02:27:24;4.20;;;3.80;;
19111;SDS011;9688;51.906;8.376;2023-07-24T02:30:11;5.63;;;3.20;;
19111;SDS011;9688;51.906;8.376;2023-07-24T02:32:59;6.10;;;3.07;;
19111;SDS011;9688;51.906;8.376;2023-07-24T02:35:44;4.17;;;3.63;;
19111;SDS011;9688;51.906;8.376;2023-07-24T02:38:30;5.43;;;3.30;;
19111;SDS011;9688;51.906;8.376;2023-07-24T02:41:16;4.00;;;3.60;;
19111;SDS011;9688;51.906;8.376;2023-07-24T02:44:02;4.23;;;3.47;;
19111;SDS011;9688;51.906;8.376;2023-07-24T02:46:48;7.27;;;3.73;;
19111;SDS011;9688;51.906;8.376;2023-07-24T02:49:35;4.67;;;3.60;;
19111;SDS011;9688;51.906;8.376;2023-07-24T02:52:22;4.00;;;3.70;;
19111;SDS011;9688;51.906;8.376;2023-07-24T02:55:08;4.87;;;3.97;;
19111;SDS011;9688;51.906;8.376;2023-07-24T02:57:54;4.77;;;3.77;;
19111;SDS011;9688;51.906;8.376;2023-07-24T03:00:40;6.87;;;3.80;;
19111;SDS011;9688;51.906;8.376;2023-07-24T03:03:26;5.73;;;3.77;;
19111;SDS011;9688;51.906;8.376;2023-07-24T03:06:13;6.63;;;3.83;;
19111;SDS011;9688;51.906;8.376;2023-07-24T03:08:59;7.80;;;4.20;;
19111;SDS011;9688;51.906;8.376;2023-07-24T03:11:44;5.17;;;3.73;;
19111;SDS011;9688;51.906;8.376;2023-07-24T03:14:30;6.53;;;3.67;;
19111;SDS011;9688;51.906;8.376;2023-07-24T03:17:16;7.50;;;4.17;;
19111;SDS011;9688;51.906;8.376;2023-07-24T03:20:13;4.97;;;4.10;;
19111;SDS011;9688;51.906;8.376;2023-07-24T03:23:01;6.03;;;4.07;;
19111;SDS011;9688;51.906;8.376;2023-07-24T03:25:48;5.60;;;3.83;;
19111;SDS011;9688;51.906;8.376;2023-07-24T03:28:33;6.10;;;4.20;;
19111;SDS011;9688;51.906;8.376;2023-07-24T03:31:19;4.63;;;3.90;;
19111;SDS011;9688;51.906;8.376;2023-07-24T03:34:06;4.67;;;3.97;;
19111;SDS011;9688;51.906;8.376;2023-07-24T03:36:52;5.87;;;4.20;;
19111;SDS011;9688;51.906;8.376;2023-07-24T03:39:39;6.40;;;4.13;;
19111;SDS011;9688;51.906;8.376;2023-07-24T03:42:25;7.20;;;4.60;;
19111;SDS011;9688;51.906;8.376;2023-07-24T03:45:12;8.13;;;4.17;;
19111;SDS011;9688;51.906;8.376;2023-07-24T03:47:58;9.50;;;3.87;;
19111;SDS011;9688;51.906;8.376;2023-07-24T03:50:43;4.67;;;3.50;;
19111;SDS011;9688;51.906;8.376;2023-07-24T03:53:29;4.00;;;3.40;;
19111;SDS011;9688;51.906;8.376;2023-07-24T03:56:17;7.20;;;3.97;;
19111;SDS011;9688;51.906;8.376;2023-07-24T03:59:03;5.53;;;3.97;;
19111;SDS011;9688;51.906;8.376;2023-07-24T04:01:48;6.53;;;3.70;;
19111;SDS011;9688;51.906;8.376;2023-07-24T04:04:34;4.03;;;3.57;;
19111;SDS011;9688;51.906;8.376;2023-07-24T04:07:20;4.97;;;3.80;;
19111;SDS011;9688;51.906;8.376;2023-07-24T04:10:06;5.93;;;3.70;;
19111;SDS011;9688;51.906;8.376;2023-07-24T04:12:56;3.50;;;3.17;;
19111;SDS011;9688;51.906;8.376;2023-07-24T04:15:42;8.50;;;3.73;;
19111;SDS011;9688;51.906;8.376;2023-07-24T04:18:28;4.00;;;3.40;;
19111;SDS011;9688;51.906;8.376;2023-07-24T04:21:16;6.70;;;3.53;;
19111;SDS011;9688;51.906;8.376;2023-07-24T04:24:01;5.37;;;3.60;;
19111;SDS011;9688;51.906;8.376;2023-07-24T04:26:47;4.77;;;3.70;;
19111;SDS011;9688;51.906;8.376;2023-07-24T04:29:34;3.90;;;3.20;;
19111;SDS011;9688;51.906;8.376;2023-07-24T04:32:20;5.17;;;3.80;;
19111;SDS011;9688;51.906;8.376;2023-07-24T04:35:06;4.00;;;3.40;;
19111;SDS011;9688;51.906;8.376;2023-07-24T04:37:53;4.23;;;3.60;;
19111;SDS011;9688;51.906;8.376;2023-07-24T04:40:39;4.17;;;3.30;;
19111;SDS011;9688;51.906;8.376;2023-07-24T04:43:24;4.80;;;3.63;;
19111;SDS011;9688;51.906;8.376;2023-07-24T04:46:11;4.77;;;3.37;;
19111;SDS011;9688;51.906;8.376;2023-07-24T04:48:57;6.03;;;4.00;;
19111;SDS011;9688;51.906;8.376;2023-07-24T04:51:43;7.07;;;4.20;;
19111;SDS011;9688;51.906;8.376;2023-07-24T04:54:29;4.20;;;3.80;;
19111;SDS011;9688;51.906;8.376;2023-07-24T04:57:14;6.07;;;3.90;;
19111;SDS011;9688;51.906;8.376;2023-07-24T05:00:01;3.80;;;3.50;;
19111;SDS011;9688;51.906;8.376;2023-07-24T05:02:48;5.80;;;3.30;;
19111;SDS011;9688;51.906;8.376;2023-07-24T05:05:34;8.80;;;3.63;;
19111;SDS011;9688;51.906;8.376;2023-07-24T05:08:20;3.93;;;3.23;;
19111;SDS011;9688;51.906;8.376;2023-07-24T05:11:05;4.97;;;3.40;;
19111;SDS011;9688;51.906;8.376;2023-07-24T05:13:51;4.63;;;3.67;;
19111;SDS011;9688;51.906;8.376;2023-07-24T05:16:37;9.07;;;3.90;;
19111;SDS011;9688;51.906;8.376;2023-07-24T05:19:24;3.90;;;3.47;;
19111;SDS011;9688;51.906;8.376;2023-07-24T05:22:10;6.93;;;3.60;;
19111;SDS011;9688;51.906;8.376;2023-07-24T05:24:57;4.00;;;3.43;;
19111;SDS011;9688;51.906;8.376;2023-07-24T05:27:42;5.57;;;3.63;;
19111;SDS011;9688;51.906;8.376;2023-07-24T05:30:28;4.20;;;3.50;;
19111;SDS011;9688;51.906;8.376;2023-07-24T05:33:15;5.17;;;3.80;;
19111;SDS011;9688;51.906;8.376;2023-07-24T05:36:02;6.23;;;3.67;;
19111;SDS011;9688;51.906;8.376;2023-07-24T05:38:49;6.47;;;3.23;;
19111;SDS011;9688;51.906;8.376;2023-07-24T05:41:37;8.60;;;3.70;;
19111;SDS011;9688;51.906;8.376;2023-07-24T05:44:23;4.50;;;3.60;;
19111;SDS011;9688;51.906;8.376;2023-07-24T05:47:09;5.73;;;3.30;;
19111;SDS011;9688;51.906;8.376;2023-07-24T05:49:55;7.23;;;3.63;;
19111;SDS011;9688;51.906;8.376;2023-07-24T05:52:42;4.07;;;3.37;;
19111;SDS011;9688;51.906;8.376;2023-07-24T05:55:28;5.83;;;3.93;;
19111;SDS011;9688;51.906;8.376;2023-07-24T05:58:14;6.17;;;4.10;;
19111;SDS011;9688;51.906;8.376;2023-07-24T06:01:00;7.07;;;4.30;;
19111;SDS011;9688;51.906;8.376;2023-07-24T06:03:46;7.40;;;4.40;;
19111;SDS011;9688;51.906;8.376;2023-07-24T06:06:32;5.47;;;3.70;;
19111;SDS011;9688;51.906;8.376;2023-07-24T06:09:20;6.60;;;4.50;;
19111;SDS011;9688;51.906;8.376;2023-07-24T06:12:07;7.27;;;4.30;;
19111;SDS011;9688;51.906;8.376;2023-07-24T06:14:53;8.10;;;4.37;;
19111;SDS011;9688;51.906;8.376;2023-07-24T06:17:40;6.27;;;4.57;;
19111;SDS011;9688;51.906;8.376;2023-07-24T06:20:26;9.47;;;4.70;;
19111;SDS011;9688;51.906;8.376;2023-07-24T06:23:11;8.83;;;4.53;;
19111;SDS011;9688;51.906;8.376;2023-07-24T06:25:58;9.70;;;5.07;;
19111;SDS011;9688;51.906;8.376;2023-07-24T06:28:44;11.80;;;5.30;;
19111;SDS011;9688;51.906;8.376;2023-07-24T06:31:29;10.27;;;4.70;;
19111;SDS011;9688;51.906;8.376;2023-07-24T06:34:34;10.57;;;5.23;;
19111;SDS011;9688;51.906;8.376;2023-07-24T06:37:20;10.17;;;4.77;;
19111;SDS011;9688;51.906;8.376;2023-07-24T06:40:07;12.47;;;5.20;;
19111;SDS011;9688;51.906;8.376;2023-07-24T06:43:01;6.37;;;4.60;;
19111;SDS011;9688;51.906;8.376;2023-07-24T06:45:47;9.43;;;5.40;;
19111;SDS011;9688;51.906;8.376;2023-07-24T06:48:34;10.33;;;4.63;;
19111;SDS011;9688;51.906;8.376;2023-07-24T06:51:20;6.57;;;4.83;;
19111;SDS011;9688;51.906;8.376;2023-07-24T06:54:06;7.27;;;3.83;;
19111;SDS011;9688;51.906;8.376;2023-07-24T06:56:52;7.10;;;4.40;;
19111;SDS011;9688;51.906;8.376;2023-07-24T06:59:39;9.07;;;4.27;;
19111;SDS011;9688;51.906;8.376;2023-07-24T07:02:25;6.63;;;4.17;;
19111;SDS011;9688;51.906;8.376;2023-07-24T07:05:13;6.87;;;4.20;;
19111;SDS011;9688;51.906;8.376;2023-07-24T07:07:59;8.20;;;4.07;;
19111;SDS011;9688;51.906;8.376;2023-07-24T07:10:45;7.03;;;4.30;;
19111;SDS011;9688;51.906;8.376;2023-07-24T07:13:31;7.60;;;4.33;;
19111;SDS011;9688;51.906;8.376;2023-07-24T07:16:19;5.77;;;4.10;;
19111;SDS011;9688;51.906;8.376;2023-07-24T07:19:05;5.93;;;4.10;;
19111;SDS011;9688;51.906;8.376;2023-07-24T07:21:53;6.83;;;4.57;;
19111;SDS011;9688;51.906;8.376;2023-07-24T07:24:39;6.73;;;4.57;;
19111;SDS011;9688;51.906;8.376;2023-07-24T07:27:25;6.03;;;4.87;;
19111;SDS011;9688;51.906;8.376;2023-07-24T07:30:11;8.00;;;4.60;;
19111;SDS011;9688;51.906;8.376;2023-07-24T07:32:58;7.30;;;4.50;;
19111;SDS011;9688;51.906;8.376;2023-07-24T07:35:44;6.93;;;4.67;;
19111;SDS011;9688;51.906;8.376;2023-07-24T07:38:30;7.27;;;4.30;;
19111;SDS011;9688;51.906;8.376;2023-07-24T07:41:16;10.90;;;5.33;;
19111;SDS011;9688;51.906;8.376;2023-07-24T07:44:02;6.77;;;4.40;;
19111;SDS011;9688;51.906;8.376;2023-07-24T07:46:48;5.67;;;4.23;;
19111;SDS011;9688;51.906;8.376;2023-07-24T07:49:39;7.67;;;5.00;;
19111;SDS011;9688;51.906;8.376;2023-07-24T07:52:25;6.70;;;4.43;;
19111;SDS011;9688;51.906;8.376;2023-07-24T07:55:12;5.97;;;4.27;;
19111;SDS011;9688;51.906;8.376;2023-07-24T07:57:58;5.47;;;4.13;;
19111;SDS011;9688;51.906;8.376;2023-07-24T08:00:44;5.30;;;4.10;;
19111;SDS011;9688;51.906;8.376;2023-07-24T08:03:30;7.93;;;4.23;;
19111;SDS011;9688;51.906;8.376;2023-07-24T08:06:18;9.37;;;4.17;;
19111;SDS011;9688;51.906;8.376;2023-07-24T08:09:06;4.67;;;3.73;;
19111;SDS011;9688;51.906;8.376;2023-07-24T08:11:52;7.07;;;3.83;;
19111;SDS011;9688;51.906;8.376;2023-07-24T08:14:37;5.53;;;4.17;;
19111;SDS011;9688;51.906;8.376;2023-07-24T08:17:23;6.43;;;4.43;;
19111;SDS011;9688;51.906;8.376;2023-07-24T08:20:10;5.37;;;4.17;;
19111;SDS011;9688;51.906;8.376;2023-07-24T08:22:58;4.40;;;3.93;;
19111;SDS011;9688;51.906;8.376;2023-07-24T08:25:50;5.20;;;4.07;;
19111;SDS011;9688;51.906;8.376;2023-07-24T08:28:39;6.13;;;3.87;;
19111;SDS011;9688;51.906;8.376;2023-07-24T08:31:26;7.37;;;4.90;;
19111;SDS011;9688;51.906;8.376;2023-07-24T08:34:14;7.73;;;4.43;;
19111;SDS011;9688;51.906;8.376;2023-07-24T08:36:59;5.10;;;4.60;;
19111;SDS011;9688;51.906;8.376;2023-07-24T08:39:47;5.53;;;4.57;;
19111;SDS011;9688;51.906;8.376;2023-07-24T08:42:33;7.70;;;4.47;;
19111;SDS011;9688;51.906;8.376;2023-07-24T08:45:19;6.43;;;4.43;;
19111;SDS011;9688;51.906;8.376;2023-07-24T08:48:05;5.43;;;4.20;;
19111;SDS011;9688;51.906;8.376;2023-07-24T08:50:51;6.13;;;4.43;;
19111;SDS011;9688;51.906;8.376;2023-07-24T08:53:39;8.27;;;4.00;;
19111;SDS011;9688;51.906;8.376;2023-07-24T08:56:32;5.07;;;4.57;;
19111;SDS011;9688;51.906;8.376;2023-07-24T08:59:18;6.27;;;4.43;;
19111;SDS011;9688;51.906;8.376;2023-07-24T09:02:06;5.37;;;4.27;;
19111;SDS011;9688;51.906;8.376;2023-07-24T09:04:51;6.20;;;4.77;;
19111;SDS011;9688;51.906;8.376;2023-07-24T09:07:37;9.37;;;4.83;;
19111;SDS011;9688;51.906;8.376;2023-07-24T09:10:24;4.93;;;4.33;;
19111;SDS011;9688;51.906;8.376;2023-07-24T09:13:12;6.43;;;4.80;;
19111;SDS011;9688;51.906;8.376;2023-07-24T09:15:58;6.10;;;5.20;;
19111;SDS011;9688;51.906;8.376;2023-07-24T09:18:45;7.00;;;5.30;;
19111;SDS011;9688;51.906;8.376;2023-07-24T09:21:31;5.27;;;4.77;;
19111;SDS011;9688;51.906;8.376;2023-07-24T09:24:18;6.83;;;4.73;;
19111;SDS011;9688;51.906;8.376;2023-07-24T09:27:05;8.00;;;5.22;;
19111;SDS011;9688;51.906;8.376;2023-07-24T09:29:53;8.03;;;4.90;;
19111;SDS011;9688;51.906;8.376;2023-07-24T09:32:40;5.37;;;4.87;;
19111;SDS011;9688;51.906;8.376;2023-07-24T09:35:27;6.53;;;4.13;;
19111;SDS011;9688;51.906;8.376;2023-07-24T09:38:13;6.03;;;4.38;;
19111;SDS011;9688;51.906;8.376;2023-07-24T09:41:02;4.47;;;3.85;;
19111;SDS011;9688;51.906;8.376;2023-07-24T09:43:57;4.32;;;3.90;;
19111;SDS011;9688;51.906;8.376;2023-07-24T09:46:47;4.65;;;4.03;;
19111;SDS011;9688;51.906;8.376;2023-07-24T09:49:33;3.92;;;3.50;;
19111;SDS011;9688;51.906;8.376;2023-07-24T09:52:19;4.10;;;3.75;;
19111;SDS011;9688;51.906;8.376;2023-07-24T09:55:17;4.53;;;3.80;;
19111;SDS011;9688;51.906;8.376;2023-07-24T09:58:08;5.07;;;3.73;;
19111;SDS011;9688;51.906;8.376;2023-07-24T10:00:56;5.70;;;4.93;;
19111;SDS011;9688;51.906;8.376;2023-07-24T10:03:46;5.43;;;4.93;;
19111;SDS011;9688;51.906;8.376;2023-07-24T10:06:34;6.50;;;4.93;;
19111;SDS011;9688;51.906;8.376;2023-07-24T10:09:22;5.80;;;5.28;;
19111;SDS011;9688;51.906;8.376;2023-07-24T10:12:11;5.93;;;5.35;;
19111;SDS011;9688;51.906;8.376;2023-07-24T10:14:57;8.13;;;5.05;;
19111;SDS011;9688;51.906;8.376;2023-07-24T10:17:43;6.53;;;5.75;;
19111;SDS011;9688;51.906;8.376;2023-07-24T10:20:34;5.60;;;5.10;;
19111;SDS011;9688;51.906;8.376;2023-07-24T10:23:22;6.40;;;5.22;;
19111;SDS011;9688;51.906;8.376;2023-07-24T10:26:11;6.07;;;5.47;;
19111;SDS011;9688;51.906;8.376;2023-07-24T10:28:57;5.10;;;4.70;;
19111;SDS011;9688;51.906;8.376;2023-07-24T10:31:51;5.10;;;4.60;;
19111;SDS011;9688;51.906;8.376;2023-07-24T10:34:38;5.80;;;5.07;;
19111;SDS011;9688;51.906;8.376;2023-07-24T10:37:32;5.63;;;5.07;;
19111;SDS011;9688;51.906;8.376;2023-07-24T10:40:23;5.80;;;5.30;;
19111;SDS011;9688;51.906;8.376;2023-07-24T10:43:09;5.40;;;4.90;;
19111;SDS011;9688;51.906;8.376;2023-07-24T10:45:58;5.68;;;5.18;;
19111;SDS011;9688;51.906;8.376;2023-07-24T10:48:46;5.60;;;5.10;;
19111;SDS011;9688;51.906;8.376;2023-07-24T10:51:33;4.43;;;4.13;;
19111;SDS011;9688;51.906;8.376;2023-07-24T10:54:24;5.00;;;4.60;;
19111;SDS011;9688;51.906;8.376;2023-07-24T10:57:11;5.17;;;4.67;;
19111;SDS011;9688;51.906;8.376;2023-07-24T10:59:58;4.35;;;3.95;;
19111;SDS011;9688;51.906;8.376;2023-07-24T11:02:45;4.75;;;4.35;;
19111;SDS011;9688;51.906;8.376;2023-07-24T11:05:33;4.28;;;3.97;;
19111;SDS011;9688;51.906;8.376;2023-07-24T11:08:19;5.75;;;4.18;;
19111;SDS011;9688;51.906;8.376;2023-07-24T11:11:08;4.28;;;3.92;;
19111;SDS011;9688;51.906;8.376;2023-07-24T11:13:56;4.60;;;3.80;;
19111;SDS011;9688;51.906;8.376;2023-07-24T11:16:47;4.63;;;3.85;;
19111;SDS011;9688;51.906;8.376;2023-07-24T11:19:35;3.47;;;3.17;;
19111;SDS011;9688;51.906;8.376;2023-07-24T11:22:21;4.13;;;3.65;;
19111;SDS011;9688;51.906;8.376;2023-07-24T11:25:08;3.90;;;3.60;;
19111;SDS011;9688;51.906;8.376;2023-07-24T11:27:59;3.70;;;3.38;;
19111;SDS011;9688;51.906;8.376;2023-07-24T11:30:48;4.10;;;3.80;;
19111;SDS011;9688;51.906;8.376;2023-07-24T11:33:35;3.88;;;3.58;;
19111;SDS011;9688;51.906;8.376;2023-07-24T11:36:22;3.80;;;3.50;;
19111;SDS011;9688;51.906;8.376;2023-07-24T11:39:08;3.40;;;3.10;;
19111;SDS011;9688;51.906;8.376;2023-07-24T11:41:54;3.75;;;3.22;;
19111;SDS011;9688;51.906;8.376;2023-07-24T11:44:42;4.97;;;4.25;;
19111;SDS011;9688;51.906;8.376;2023-07-24T11:47:28;4.90;;;4.00;;
19111;SDS011;9688;51.906;8.376;2023-07-24T11:50:15;6.75;;;4.40;;
19111;SDS011;9688;51.906;8.376;2023-07-24T11:53:02;3.85;;;3.55;;
19111;SDS011;9688;51.906;8.376;2023-07-24T11:55:49;3.85;;;3.55;;
19111;SDS011;9688;51.906;8.376;2023-07-24T11:58:36;3.60;;;2.80;;
19111;SDS011;9688;51.906;8.376;2023-07-24T12:01:24;3.10;;;2.90;;
19111;SDS011;9688;51.906;8.376;2023-07-24T12:04:09;3.00;;;2.80;;
19111;SDS011;9688;51.906;8.376;2023-07-24T12:06:58;2.85;;;2.65;;
19111;SDS011;9688;51.906;8.376;2023-07-24T12:09:49;4.93;;;3.22;;
19111;SDS011;9688;51.906;8.376;2023-07-24T12:12:36;4.00;;;2.70;;
19111;SDS011;9688;51.906;8.376;2023-07-24T12:15:28;4.30;;;2.78;;
19111;SDS011;9688;51.906;8.376;2023-07-24T12:18:16;5.55;;;2.30;;
19111;SDS011;9688;51.906;8.376;2023-07-24T12:21:02;3.58;;;2.70;;
19111;SDS011;9688;51.906;8.376;2023-07-24T12:23:51;3.95;;;2.63;;
19111;SDS011;9688;51.906;8.376;2023-07-24T12:26:37;3.20;;;3.00;;
19111;SDS011;9688;51.906;8.376;2023-07-24T12:29:23;6.80;;;3.25;;
19111;SDS011;9688;51.906;8.376;2023-07-24T12:32:11;3.13;;;2.65;;
19111;SDS011;9688;51.906;8.376;2023-07-24T12:35:00;4.82;;;3.50;;
19111;SDS011;9688;51.906;8.376;2023-07-24T12:37:46;4.05;;;3.70;;
19111;SDS011;9688;51.906;8.376;2023-07-24T12:40:34;8.43;;;4.38;;
19111;SDS011;9688;51.906;8.376;2023-07-24T12:43:19;9.52;;;4.93;;
19111;SDS011;9688;51.906;8.376;2023-07-24T12:46:06;9.00;;;5.28;;
19111;SDS011;9688;51.906;8.376;2023-07-24T12:48:54;11.23;;;6.23;;
19111;SDS011;9688;51.906;8.376;2023-07-24T12:51:44;10.90;;;7.27;;
19111;SDS011;9688;51.906;8.376;2023-07-24T12:54:31;4.50;;;4.10;;
19111;SDS011;9688;51.906;8.376;2023-07-24T12:57:16;6.47;;;4.87;;
19111;SDS011;9688;51.906;8.376;2023-07-24T13:00:02;7.67;;;5.70;;
19111;SDS011;9688;51.906;8.376;2023-07-24T13:02:49;9.60;;;6.93;;
19111;SDS011;9688;51.906;8.376;2023-07-24T13:05:35;8.73;;;6.37;;
19111;SDS011;9688;51.906;8.376;2023-07-24T13:08:23;9.93;;;7.17;;
19111;SDS011;9688;51.906;8.376;2023-07-24T13:11:10;8.23;;;6.53;;
19111;SDS011;9688;51.906;8.376;2023-07-24T13:13:56;10.00;;;5.87;;
19111;SDS011;9688;51.906;8.376;2023-07-24T13:16:42;7.60;;;5.50;;
19111;SDS011;9688;51.906;8.376;2023-07-24T13:19:29;7.27;;;4.87;;
19111;SDS011;9688;51.906;8.376;2023-07-24T13:22:15;5.07;;;4.23;;
19111;SDS011;9688;51.906;8.376;2023-07-24T13:25:03;5.50;;;3.60;;
19111;SDS011;9688;51.906;8.376;2023-07-24T13:27:50;4.67;;;3.63;;
19111;SDS011;9688;51.906;8.376;2023-07-24T13:30:37;3.83;;;3.40;;
19111;SDS011;9688;51.906;8.376;2023-07-24T13:33:23;3.50;;;2.90;;
19111;SDS011;9688;51.906;8.376;2023-07-24T13:36:09;3.30;;;3.10;;
19111;SDS011;9688;51.906;8.376;2023-07-24T13:38:55;3.10;;;2.90;;
19111;SDS011;9688;51.906;8.376;2023-07-24T13:41:42;3.90;;;3.20;;
19111;SDS011;9688;51.906;8.376;2023-07-24T13:44:28;3.43;;;2.93;;
19111;SDS011;9688;51.906;8.376;2023-07-24T13:47:14;3.77;;;2.80;;
19111;SDS011;9688;51.906;8.376;2023-07-24T13:49:59;2.73;;;2.53;;
19111;SDS011;9688;51.906;8.376;2023-07-24T13:52:47;3.33;;;3.03;;
19111;SDS011;9688;51.906;8.376;2023-07-24T13:55:34;5.37;;;2.53;;
19111;SDS011;9688;51.906;8.376;2023-07-24T13:58:22;2.97;;;2.00;;
19111;SDS011;9688;51.906;8.376;2023-07-24T14:01:09;1.93;;;1.83;;
19111;SDS011;9688;51.906;8.376;2023-07-24T14:03:55;1.93;;;1.73;;
19111;SDS011;9688;51.906;8.376;2023-07-24T14:06:41;2.00;;;1.90;;
19111;SDS011;9688;51.906;8.376;2023-07-24T14:09:27;3.07;;;2.20;;
19111;SDS011;9688;51.906;8.376;2023-07-24T14:12:15;2.43;;;1.70;;
19111;SDS011;9688;51.906;8.376;2023-07-24T14:15:02;1.67;;;1.57;;
19111;SDS011;9688;51.906;8.376;2023-07-24T14:17:49;3.00;;;2.10;;
19111;SDS011;9688;51.906;8.376;2023-07-24T14:20:36;1.90;;;1.60;;
19111;SDS011;9688;51.906;8.376;2023-07-24T14:23:27;1.97;;;1.87;;
19111;SDS011;9688;51.906;8.376;2023-07-24T14:26:13;1.80;;;1.70;;
19111;SDS011;9688;51.906;8.376;2023-07-24T14:28:59;2.40;;;1.60;;
19111;SDS011;9688;51.906;8.376;2023-07-24T14:31:47;2.00;;;1.80;;
19111;SDS011;9688;51.906;8.376;2023-07-24T14:34:33;1.53;;;1.50;;
19111;SDS011;9688;51.906;8.376;2023-07-24T14:37:19;1.80;;;1.70;;
19111;SDS011;9688;51.906;8.376;2023-07-24T14:40:05;1.87;;;1.43;;
19111;SDS011;9688;51.906;8.376;2023-07-24T14:42:53;1.83;;;1.50;;
19111;SDS011;9688;51.906;8.376;2023-07-24T14:45:39;1.80;;;1.70;;
19111;SDS011;9688;51.906;8.376;2023-07-24T14:48:31;2.87;;;1.70;;
19111;SDS011;9688;51.906;8.376;2023-07-24T14:51:17;2.60;;;1.50;;
19111;SDS011;9688;51.906;8.376;2023-07-24T14:54:04;1.50;;;1.40;;
19111;SDS011;9688;51.906;8.376;2023-07-24T14:56:51;2.27;;;1.20;;
19111;SDS011;9688;51.906;8.376;2023-07-24T14:59:38;1.30;;;1.27;;
19111;SDS011;9688;51.906;8.376;2023-07-24T15:02:25;4.50;;;1.30;;
19111;SDS011;9688;51.906;8.376;2023-07-24T15:05:14;1.20;;;1.20;;
19111;SDS011;9688;51.906;8.376;2023-07-24T15:08:01;1.73;;;1.63;;
19111;SDS011;9688;51.906;8.376;2023-07-24T15:10:48;4.93;;;1.90;;
19111;SDS011;9688;51.906;8.376;2023-07-24T15:13:33;1.70;;;1.60;;
19111;SDS011;9688;51.906;8.376;2023-07-24T15:16:20;2.10;;;1.70;;
19111;SDS011;9688;51.906;8.376;2023-07-24T15:19:06;2.13;;;1.60;;
19111;SDS011;9688;51.906;8.376;2023-07-24T15:21:54;4.07;;;2.10;;
19111;SDS011;9688;51.906;8.376;2023-07-24T15:24:42;1.90;;;1.80;;
19111;SDS011;9688;51.906;8.376;2023-07-24T15:27:29;1.80;;;1.70;;
19111;SDS011;9688;51.906;8.376;2023-07-24T15:30:14;2.27;;;2.07;;
19111;SDS011;9688;51.906;8.376;2023-07-24T15:33:04;2.17;;;2.07;;
19111;SDS011;9688;51.906;8.376;2023-07-24T15:35:50;1.93;;;1.83;;
19111;SDS011;9688;51.906;8.376;2023-07-24T15:38:37;2.33;;;2.03;;
19111;SDS011;9688;51.906;8.376;2023-07-24T15:41:23;2.73;;;2.23;;
19111;SDS011;9688;51.906;8.376;2023-07-24T15:44:09;3.10;;;2.13;;
19111;SDS011;9688;51.906;8.376;2023-07-24T15:46:56;2.47;;;2.23;;
19111;SDS011;9688;51.906;8.376;2023-07-24T15:49:42;3.83;;;3.00;;
19111;SDS011;9688;51.906;8.376;2023-07-24T15:52:43;2.63;;;2.43;;
19111;SDS011;9688;51.906;8.376;2023-07-24T15:55:35;2.77;;;2.57;;
19111;SDS011;9688;51.906;8.376;2023-07-24T15:58:22;3.17;;;2.80;;
19111;SDS011;9688;51.906;8.376;2023-07-24T16:01:08;3.47;;;2.72;;
19111;SDS011;9688;51.906;8.376;2023-07-24T16:03:53;5.23;;;2.90;;
19111;SDS011;9688;51.906;8.376;2023-07-24T16:06:40;2.60;;;2.40;;
19111;SDS011;9688;51.906;8.376;2023-07-24T16:09:26;3.50;;;3.10;;
19111;SDS011;9688;51.906;8.376;2023-07-24T16:12:15;4.13;;;3.20;;
19111;SDS011;9688;51.906;8.376;2023-07-24T16:15:02;3.45;;;3.15;;
19111;SDS011;9688;51.906;8.376;2023-07-24T16:17:48;3.55;;;2.88;;
19111;SDS011;9688;51.906;8.376;2023-07-24T16:20:34;5.53;;;3.87;;
19111;SDS011;9688;51.906;8.376;2023-07-24T16:23:20;5.03;;;3.50;;
19111;SDS011;9688;51.906;8.376;2023-07-24T16:26:06;3.73;;;3.47;;
19111;SDS011;9688;51.906;8.376;2023-07-24T16:28:53;6.33;;;3.70;;
19111;SDS011;9688;51.906;8.376;2023-07-24T16:31:39;5.43;;;4.10;;
19111;SDS011;9688;51.906;8.376;2023-07-24T16:34:25;5.07;;;4.10;;
19111;SDS011;9688;51.906;8.376;2023-07-24T16:37:11;4.00;;;3.60;;
19111;SDS011;9688;51.906;8.376;2023-07-24T16:39:58;8.20;;;3.63;;
19111;SDS011;9688;51.906;8.376;2023-07-24T16:42:44;4.93;;;3.87;;
19111;SDS011;9688;51.906;8.376;2023-07-24T16:45:32;5.13;;;3.77;;
19111;SDS011;9688;51.906;8.376;2023-07-24T16:48:18;5.47;;;3.70;;
19111;SDS011;9688;51.906;8.376;2023-07-24T16:51:03;4.73;;;4.23;;
19111;SDS011;9688;51.906;8.376;2023-07-24T16:53:49;7.83;;;4.50;;
19111;SDS011;9688;51.906;8.376;2023-07-24T16:56:35;7.00;;;4.50;;
19111;SDS011;9688;51.906;8.376;2023-07-24T16:59:21;6.80;;;5.10;;
19111;SDS011;9688;51.906;8.376;2023-07-24T17:02:08;6.23;;;4.60;;